Tofino, Canada
Current Conditions -  °F | °C
As of 11:00 AM on Monday 20 Oct 2014 (Local Time) from CYAZ Reporting Station
Broken Clouds Broken Clouds  
Wind Chill: 59°   Ceiling: 2300
Heat Index: 59°   Visibility: 8mi
Dew Point: 57°   Wind: 10mph
Humidity: 94%   Direction: 140°SE
Pressure: 29.66"   Gusts: NA
Location:  49.15°N, 125.9°W
Report Text: CYAZ 201800Z 14009KT 8SM FEW012 FEW020TCU BKN023 BKN140 15/14 A2966 RMK CF1TCU1SC3AC1 SLP045 DENSITY ALT 300FT
Loading
Personal Weather Stations






























Interactive Weather Map
Tropical Storm Tracking
New forecast layout! Learn more

10-Day Weather Forecast

Advertisements
Track Severe Weather on mobile